sensor_id;sensor_type;location;lat;lon;timestamp;temperature;humidity
1524;DHT22;755;53.658;10.118;2022-08-18T00:08:23;19.00;99.90
1524;DHT22;755;53.658;10.118;2022-08-18T00:18:25;19.10;99.90
1524;DHT22;755;53.658;10.118;2022-08-18T00:28:28;19.10;99.90
1524;DHT22;755;53.658;10.118;2022-08-18T00:38:30;19.10;99.90
1524;DHT22;755;53.658;10.118;2022-08-18T00:48:34;19.10;99.90
1524;DHT22;755;53.658;10.118;2022-08-18T00:58:39;19.10;99.90
1524;DHT22;755;53.658;10.118;2022-08-18T01:08:43;19.10;99.90
1524;DHT22;755;53.658;10.118;2022-08-18T01:18:46;19.00;99.90
1524;DHT22;755;53.658;10.118;2022-08-18T01:29:08;18.90;99.90
1524;DHT22;755;53.658;10.118;2022-08-18T01:39:12;18.80;99.90
1524;DHT22;755;53.658;10.118;2022-08-18T01:49:15;18.90;99.90
1524;DHT22;755;53.658;10.118;2022-08-18T01:59:19;18.80;99.90
1524;DHT22;755;53.658;10.118;2022-08-18T02:09:22;18.80;99.90
1524;DHT22;755;53.658;10.118;2022-08-18T02:19:24;18.80;99.90
1524;DHT22;755;53.658;10.118;2022-08-18T02:29:28;18.50;99.90
1524;DHT22;755;53.658;10.118;2022-08-18T02:39:33;18.50;99.90
1524;DHT22;755;53.658;10.118;2022-08-18T02:49:36;18.50;99.90
1524;DHT22;755;53.658;10.118;2022-08-18T02:59:39;18.40;99.90
1524;DHT22;755;53.658;10.118;2022-08-18T03:09:42;18.40;99.90
1524;DHT22;755;53.658;10.118;2022-08-18T03:19:45;18.40;99.90
1524;DHT22;755;53.658;10.118;2022-08-18T03:29:48;18.30;99.90
1524;DHT22;755;53.658;10.118;2022-08-18T03:39:50;18.20;99.90
1524;DHT22;755;53.658;10.118;2022-08-18T03:49:54;18.20;99.90
1524;DHT22;755;53.658;10.118;2022-08-18T03:59:56;18.20;99.90
1524;DHT22;755;53.658;10.118;2022-08-18T04:09:59;18.20;99.90
1524;DHT22;755;53.658;10.118;2022-08-18T04:20:01;18.10;99.90
1524;DHT22;755;53.658;10.118;2022-08-18T04:30:06;18.00;99.90
1524;DHT22;755;53.658;10.118;2022-08-18T04:40:09;18.10;99.90
1524;DHT22;755;53.658;10.118;2022-08-18T04:50:12;18.10;99.90
1524;DHT22;755;53.658;10.118;2022-08-18T05:00:14;18.10;99.90
1524;DHT22;755;53.658;10.118;2022-08-18T05:10:18;18.30;99.90
1524;DHT22;755;53.658;10.118;2022-08-18T05:20:20;18.60;99.90
1524;DHT22;755;53.658;10.118;2022-08-18T05:30:24;18.60;99.90
1524;DHT22;755;53.658;10.118;2022-08-18T05:40:26;18.70;99.90
1524;DHT22;755;53.658;10.118;2022-08-18T05:50:33;18.80;99.90
1524;DHT22;755;53.658;10.118;2022-08-18T06:00:36;19.10;99.90
1524;DHT22;755;53.658;10.118;2022-08-18T06:10:46;19.20;99.90
1524;DHT22;755;53.658;10.118;2022-08-18T06:21:09;19.30;99.90
1524;DHT22;755;53.658;10.118;2022-08-18T06:31:16;19.30;99.90
1524;DHT22;755;53.658;10.118;2022-08-18T06:41:22;19.30;99.90
1524;DHT22;755;53.658;10.118;2022-08-18T06:51:34;19.40;99.90
1524;DHT22;755;53.658;10.118;2022-08-18T07:01:37;19.50;99.90
1524;DHT22;755;53.658;10.118;2022-08-18T07:11:40;19.70;99.90
1524;DHT22;755;53.658;10.118;2022-08-18T07:22:01;20.00;99.90
1524;DHT22;755;53.658;10.118;2022-08-18T07:32:10;20.50;99.90
1524;DHT22;755;53.658;10.118;2022-08-18T07:42:18;20.90;99.90
1524;DHT22;755;53.658;10.118;2022-08-18T07:52:25;20.90;99.90
1524;DHT22;755;53.658;10.118;2022-08-18T08:02:43;20.60;99.90
1524;DHT22;755;53.658;10.118;2022-08-18T08:12:54;20.30;99.90
1524;DHT22;755;53.658;10.118;2022-08-18T08:23:08;20.50;99.90
1524;DHT22;755;53.658;10.118;2022-08-18T08:33:22;20.40;99.90
1524;DHT22;755;53.658;10.118;2022-08-18T08:43:30;20.50;99.90
1524;DHT22;755;53.658;10.118;2022-08-18T08:53:39;20.30;99.90
1524;DHT22;755;53.658;10.118;2022-08-18T09:03:46;20.50;99.90
1524;DHT22;755;53.658;10.118;2022-08-18T09:14:21;20.80;99.90
1524;DHT22;755;53.658;10.118;2022-08-18T09:24:29;21.00;99.90
1524;DHT22;755;53.658;10.118;2022-08-18T09:34:44;21.20;99.90
1524;DHT22;755;53.658;10.118;2022-08-18T09:45:02;21.60;99.90
1524;DHT22;755;53.658;10.118;2022-08-18T10:06:13;22.10;99.90
1524;DHT22;755;53.658;10.118;2022-08-18T10:16:21;22.60;99.90
1524;DHT22;755;53.658;10.118;2022-08-18T10:37:12;23.40;89.60
1524;DHT22;755;53.658;10.118;2022-08-18T10:47:22;23.40;99.90
1524;DHT22;755;53.658;10.118;2022-08-18T10:57:31;23.10;1.00
1524;DHT22;755;53.658;10.118;2022-08-18T11:07:37;23.40;1.00
1524;DHT22;755;53.658;10.118;2022-08-18T11:17:54;23.60;16.90
1524;DHT22;755;53.658;10.118;2022-08-18T11:28:00;24.10;99.90
1524;DHT22;755;53.658;10.118;2022-08-18T11:38:10;24.20;1.00
1524;DHT22;755;53.658;10.118;2022-08-18T11:48:18;24.40;99.90
1524;DHT22;755;53.658;10.118;2022-08-18T11:58:40;24.30;99.90
1524;DHT22;755;53.658;10.118;2022-08-18T12:08:50;24.40;1.00
1524;DHT22;755;53.658;10.118;2022-08-18T12:18:53;24.60;20.10
1524;DHT22;755;53.658;10.118;2022-08-18T12:28:55;25.10;1.00
1524;DHT22;755;53.658;10.118;2022-08-18T12:38:59;26.10;1.00
1524;DHT22;755;53.658;10.118;2022-08-18T12:49:02;26.00;99.90
1524;DHT22;755;53.658;10.118;2022-08-18T12:59:08;26.50;1.00
1524;DHT22;755;53.658;10.118;2022-08-18T13:09:10;26.40;99.90
1524;DHT22;755;53.658;10.118;2022-08-18T13:19:14;26.80;47.30
1524;DHT22;755;53.658;10.118;2022-08-18T13:29:16;26.90;51.70
1524;DHT22;755;53.658;10.118;2022-08-18T13:39:22;27.00;1.00
1524;DHT22;755;53.658;10.118;2022-08-18T13:49:25;27.50;1.00
1524;DHT22;755;53.658;10.118;2022-08-18T13:59:28;27.50;99.90
1524;DHT22;755;53.658;10.118;2022-08-18T14:09:32;27.30;99.90
1524;DHT22;755;53.658;10.118;2022-08-18T14:19:36;26.20;1.00
1524;DHT22;755;53.658;10.118;2022-08-18T14:29:56;26.40;1.00
1524;DHT22;755;53.658;10.118;2022-08-18T14:39:59;26.10;1.00
1524;DHT22;755;53.658;10.118;2022-08-18T14:50:01;26.30;1.00
1524;DHT22;755;53.658;10.118;2022-08-18T15:00:08;25.70;2.10
1524;DHT22;755;53.658;10.118;2022-08-18T15:10:12;25.60;99.90
1524;DHT22;755;53.658;10.118;2022-08-18T15:20:16;25.50;99.90
1524;DHT22;755;53.658;10.118;2022-08-18T15:30:19;25.30;99.90
1524;DHT22;755;53.658;10.118;2022-08-18T15:40:24;25.00;99.90
1524;DHT22;755;53.658;10.118;2022-08-18T15:50:27;25.00;99.90
1524;DHT22;755;53.658;10.118;2022-08-18T16:00:30;24.70;99.90
1524;DHT22;755;53.658;10.118;2022-08-18T16:10:36;24.60;1.00
1524;DHT22;755;53.658;10.118;2022-08-18T16:20:40;24.40;99.90
1524;DHT22;755;53.658;10.118;2022-08-18T16:30:45;24.10;1.00
1524;DHT22;755;53.658;10.118;2022-08-18T16:40:49;24.10;1.00
1524;DHT22;755;53.658;10.118;2022-08-18T16:50:51;24.20;1.00
1524;DHT22;755;53.658;10.118;2022-08-18T17:00:55;24.50;1.00
1524;DHT22;755;53.658;10.118;2022-08-18T17:11:17;24.40;1.00
1524;DHT22;755;53.658;10.118;2022-08-18T17:21:23;24.20;1.00
1524;DHT22;755;53.658;10.118;2022-08-18T17:31:26;24.00;99.90
1524;DHT22;755;53.658;10.118;2022-08-18T17:41:30;23.90;99.90
1524;DHT22;755;53.658;10.118;2022-08-18T17:51:36;23.70;99.90
1524;DHT22;755;53.658;10.118;2022-08-18T18:01:41;23.50;99.90
1524;DHT22;755;53.658;10.118;2022-08-18T18:11:43;23.40;1.00
1524;DHT22;755;53.658;10.118;2022-08-18T18:22:00;22.90;99.90
1524;DHT22;755;53.658;10.118;2022-08-18T18:32:04;22.50;99.90
1524;DHT22;755;53.658;10.118;2022-08-18T18:42:15;22.30;1.00
1524;DHT22;755;53.658;10.118;2022-08-18T18:52:24;22.10;1.00
1524;DHT22;755;53.658;10.118;2022-08-18T19:02:39;22.00;99.90
1524;DHT22;755;53.658;10.118;2022-08-18T19:12:48;21.60;1.00
1524;DHT22;755;53.658;10.118;2022-08-18T19:22:57;21.50;3.60
1524;DHT22;755;53.658;10.118;2022-08-18T19:33:02;21.10;1.00
1524;DHT22;755;53.658;10.118;2022-08-18T19:43:13;20.90;1.00
1524;DHT22;755;53.658;10.118;2022-08-18T20:04:00;20.80;1.00
1524;DHT22;755;53.658;10.118;2022-08-18T20:14:09;20.60;99.90
1524;DHT22;755;53.658;10.118;2022-08-18T20:24:36;20.50;58.80
1524;DHT22;755;53.658;10.118;2022-08-18T20:34:46;20.40;99.90
1524;DHT22;755;53.658;10.118;2022-08-18T20:44:56;20.30;99.90
1524;DHT22;755;53.658;10.118;2022-08-18T20:55:04;20.10;99.90
1524;DHT22;755;53.658;10.118;2022-08-18T21:05:08;20.10;99.90
1524;DHT22;755;53.658;10.118;2022-08-18T21:15:12;20.00;99.90
1524;DHT22;755;53.658;10.118;2022-08-18T21:25:15;19.90;99.90
1524;DHT22;755;53.658;10.118;2022-08-18T21:35:21;20.00;99.90
1524;DHT22;755;53.658;10.118;2022-08-18T21:45:28;20.00;99.90
1524;DHT22;755;53.658;10.118;2022-08-18T21:55:32;19.80;99.90
1524;DHT22;755;53.658;10.118;2022-08-18T22:05:40;19.70;99.90
1524;DHT22;755;53.658;10.118;2022-08-18T22:15:44;19.60;99.90
1524;DHT22;755;53.658;10.118;2022-08-18T22:25:49;19.60;99.90
1524;DHT22;755;53.658;10.118;2022-08-18T22:35:55;19.40;99.90
1524;DHT22;755;53.658;10.118;2022-08-18T22:45:59;19.30;99.90
1524;DHT22;755;53.658;10.118;2022-08-18T22:56:02;19.20;99.90
1524;DHT22;755;53.658;10.118;2022-08-18T23:06:06;19.30;99.90
1524;DHT22;755;53.658;10.118;2022-08-18T23:16:10;19.30;99.90
1524;DHT22;755;53.658;10.118;2022-08-18T23:26:14;19.40;99.90
1524;DHT22;755;53.658;10.118;2022-08-18T23:36:16;19.50;99.90
1524;DHT22;755;53.658;10.118;2022-08-18T23:46:21;19.50;99.90
1524;DHT22;755;53.658;10.118;2022-08-18T23:56:25;19.60;99.90
